Time;durP1;ratioP1;P1;durP2;ratioP2;P2;SDS_P1;SDS_P2;PMS_P1;PMS_P2;Temp;Humidity;BMP_temperature;BMP_pressure;BME280_temperature;BME280_humidity;BME280_pressure;Samples;Min_cycle;Max_cycle;Signal;HPM_P1;HPM_P2
2024/03/11 00:02:23;;;;;;;3.33;2.97;;;;;;;;;;5817861;28;20162;-81
2024/03/11 00:05:15;;;;;;;34.70;16.50;;;;;;;;;;5817723;28;20133;-81
2024/03/11 00:08:09;;;;;;;8.48;6.20;;;;;;;;;;5817596;28;20051;-81
2024/03/11 00:11:00;;;;;;;17.90;6.70;;;;;;;;;;5818319;28;20057;-82
2024/03/11 00:13:51;;;;;;;12.52;10.27;;;;;;;;;;5825546;28;20069;-82
2024/03/11 00:16:42;;;;;;;14.82;10.32;;;;;;;;;;5818825;28;20054;-82
2024/03/11 00:19:33;;;;;;;7.65;5.57;;;;;;;;;;5849724;28;20739;-82
2024/03/11 00:22:24;;;;;;;13.32;6.20;;;;;;;;;;5833377;28;20043;-82
2024/03/11 00:25:15;;;;;;;19.13;10.45;;;;;;;;;;5817170;28;20054;-81
2024/03/11 00:28:07;;;;;;;16.05;7.82;;;;;;;;;;5818578;28;20407;-82
2024/03/11 00:31:00;;;;;;;6.25;4.45;;;;;;;;;;5817691;28;20642;-81
2024/03/11 00:33:51;;;;;;;13.88;9.77;;;;;;;;;;5825288;28;20050;-82
2024/03/11 00:36:42;;;;;;;17.55;8.15;;;;;;;;;;5833267;28;20046;-82
2024/03/11 00:39:34;;;;;;;10.85;4.63;;;;;;;;;;5833146;28;20050;-82
2024/03/11 00:42:25;;;;;;;9.07;8.13;;;;;;;;;;5816735;28;20049;-82
2024/03/11 00:45:18;;;;;;;15.57;10.02;;;;;;;;;;5816993;28;20057;-81
2024/03/11 00:48:10;;;;;;;3.00;2.40;;;;;;;;;;5817039;28;20050;-81
2024/03/11 00:51:01;;;;;;;18.45;8.40;;;;;;;;;;5818066;28;20125;-81
2024/03/11 00:53:52;;;;;;;11.60;6.60;;;;;;;;;;5800903;28;20057;-81
2024/03/11 00:56:43;;;;;;;6.55;5.90;;;;;;;;;;5816503;28;20050;-82
2024/03/11 00:59:35;;;;;;;5.45;2.85;;;;;;;;;;5800739;28;20057;-81
2024/03/11 01:02:26;;;;;;;17.98;9.55;;;;;;;;;;5825997;28;20125;-81
2024/03/11 01:05:17;;;;;;;14.93;10.35;;;;;;;;;;5839160;28;20125;-82
2024/03/11 01:08:09;;;;;;;11.60;9.88;;;;;;;;;;5838620;28;20128;-81
2024/03/11 01:11:00;;;;;;;8.20;7.25;;;;;;;;;;5839420;28;20631;-82
2024/03/11 01:13:51;;;;;;;7.25;4.68;;;;;;;;;;5822964;28;20045;-81
2024/03/11 01:16:42;;;;;;;2.63;2.42;;;;;;;;;;5838974;28;20044;-81
2024/03/11 01:19:33;;;;;;;4.70;3.53;;;;;;;;;;5838812;28;20133;-80
2024/03/11 01:22:24;;;;;;;2.67;2.40;;;;;;;;;;5839824;28;20041;-82
2024/03/11 01:25:15;;;;;;;4.55;3.65;;;;;;;;;;5839979;28;20064;-81
2024/03/11 01:28:10;;;;;;;9.77;3.95;;;;;;;;;;5840087;28;20053;-81
2024/03/11 01:31:04;;;;;;;13.45;4.03;;;;;;;;;;5822994;28;20087;-81
2024/03/11 01:33:55;;;;;;;11.20;5.22;;;;;;;;;;5840249;28;20046;-81
2024/03/11 01:36:46;;;;;;;4.20;2.97;;;;;;;;;;5838652;28;20510;-82
2024/03/11 01:39:43;;;;;;;2.65;2.45;;;;;;;;;;5838542;28;20053;-81
2024/03/11 01:42:34;;;;;;;2.58;2.38;;;;;;;;;;5823396;28;20512;-81
2024/03/11 01:45:25;;;;;;;5.40;3.40;;;;;;;;;;5838357;28;20042;-81
2024/03/11 01:48:16;;;;;;;4.35;2.95;;;;;;;;;;5839720;28;20050;-81
2024/03/11 01:51:07;;;;;;;3.33;2.75;;;;;;;;;;5838299;28;20674;-80
2024/03/11 01:53:58;;;;;;;4.63;2.75;;;;;;;;;;5838668;28;20500;-81
2024/03/11 01:56:49;;;;;;;9.05;3.90;;;;;;;;;;5839588;28;20041;-81
2024/03/11 01:59:41;;;;;;;3.35;3.05;;;;;;;;;;5822078;28;20065;-81
2024/03/11 02:02:32;;;;;;;4.32;3.67;;;;;;;;;;5821875;28;20046;-82
2024/03/11 02:05:27;;;;;;;7.35;4.13;;;;;;;;;;5839548;28;20119;-82
2024/03/11 02:08:21;;;;;;;5.28;3.70;;;;;;;;;;5821794;28;20065;-81
2024/03/11 02:11:12;;;;;;;2.85;2.38;;;;;;;;;;5838115;28;20058;-81
2024/03/11 02:14:05;;;;;;;6.68;1.98;;;;;;;;;;5838003;28;20053;-81
2024/03/11 02:16:58;;;;;;;2.35;2.10;;;;;;;;;;5822375;28;20045;-81
2024/03/11 02:19:49;;;;;;;4.00;2.83;;;;;;;;;;5839365;28;20046;-82
2024/03/11 02:22:50;;;;;;;9.02;2.80;;;;;;;;;;5839586;28;20050;-81
2024/03/11 02:25:41;;;;;;;4.28;3.20;;;;;;;;;;5844224;28;20053;-81
2024/03/11 02:28:32;;;;;;;5.22;3.00;;;;;;;;;;5843904;28;20046;-83
2024/03/11 02:31:23;;;;;;;5.35;2.33;;;;;;;;;;5826210;28;20050;-82
2024/03/11 02:34:15;;;;;;;3.72;2.95;;;;;;;;;;5842503;28;20496;-83
2024/03/11 02:37:07;;;;;;;2.72;2.17;;;;;;;;;;5826273;28;20066;-81
2024/03/11 02:39:57;;;;;;;4.18;2.85;;;;;;;;;;5842789;28;20049;-81
2024/03/11 02:42:48;;;;;;;3.47;2.97;;;;;;;;;;5826105;28;20046;-82
2024/03/11 02:45:40;;;;;;;5.55;2.65;;;;;;;;;;5843848;28;20423;-81
2024/03/11 02:48:30;;;;;;;2.95;2.22;;;;;;;;;;5843484;28;20038;-82
2024/03/11 02:51:22;;;;;;;2.38;1.95;;;;;;;;;;5842195;28;20180;-81
2024/03/11 02:54:14;;;;;;;2.95;2.63;;;;;;;;;;5842279;28;20061;-82
2024/03/11 02:57:05;;;;;;;2.17;1.95;;;;;;;;;;5843507;28;20130;-81
2024/03/11 02:59:56;;;;;;;2.22;2.03;;;;;;;;;;5826128;28;20046;-81
2024/03/11 03:02:51;;;;;;;3.78;2.42;;;;;;;;;;5841941;28;20046;-81
2024/03/11 03:05:42;;;;;;;4.22;2.30;;;;;;;;;;5842682;28;20804;-81
2024/03/11 03:08:33;;;;;;;3.97;2.40;;;;;;;;;;5841650;28;20238;-81
2024/03/11 03:11:24;;;;;;;2.80;2.47;;;;;;;;;;5841750;28;20132;-81
2024/03/11 03:14:16;;;;;;;1.95;1.80;;;;;;;;;;5841789;28;20054;-81
2024/03/11 03:17:07;;;;;;;4.43;2.72;;;;;;;;;;5841985;28;20060;-81
2024/03/11 03:19:59;;;;;;;3.78;2.78;;;;;;;;;;5841987;28;20552;-82
2024/03/11 03:22:50;;;;;;;2.95;2.45;;;;;;;;;;5842006;28;20062;-81
2024/03/11 03:25:41;;;;;;;2.35;2.15;;;;;;;;;;5825160;28;20560;-82
2024/03/11 03:28:31;;;;;;;4.40;2.92;;;;;;;;;;5825119;28;20046;-82
2024/03/11 03:31:23;;;;;;;3.42;2.58;;;;;;;;;;5842455;28;20412;-81
2024/03/11 03:34:13;;;;;;;2.88;2.15;;;;;;;;;;5841166;28;20472;-81
2024/03/11 03:37:04;;;;;;;12.02;2.42;;;;;;;;;;5841407;28;20370;-81
2024/03/11 03:39:55;;;;;;;3.10;1.85;;;;;;;;;;5825595;28;20128;-82
2024/03/11 03:42:47;;;;;;;2.65;1.90;;;;;;;;;;5842230;28;20044;-81
2024/03/11 03:45:38;;;;;;;9.25;3.47;;;;;;;;;;5842265;28;20060;-81
2024/03/11 03:48:29;;;;;;;7.05;3.17;;;;;;;;;;5840875;28;20124;-81
2024/03/11 03:51:20;;;;;;;3.42;2.13;;;;;;;;;;5840938;28;20046;-81
2024/03/11 03:54:11;;;;;;;2.08;1.95;;;;;;;;;;5840910;28;20084;-82
2024/03/11 03:57:02;;;;;;;1.52;1.42;;;;;;;;;;5841117;28;20157;-81
2024/03/11 03:59:53;;;;;;;4.15;2.63;;;;;;;;;;5840987;28;20511;-82
2024/03/11 04:02:49;;;;;;;3.55;2.90;;;;;;;;;;5840652;28;20046;-81
2024/03/11 04:05:40;;;;;;;4.57;3.08;;;;;;;;;;5839773;28;20050;-82
2024/03/11 04:08:31;;;;;;;2.72;2.53;;;;;;;;;;5840213;28;20045;-81
2024/03/11 04:11:22;;;;;;;5.85;3.10;;;;;;;;;;5840389;28;20073;-81
2024/03/11 04:14:13;;;;;;;2.63;2.42;;;;;;;;;;5841983;28;20050;-82
2024/03/11 04:17:06;;;;;;;5.53;3.65;;;;;;;;;;5840684;28;20627;-83
2024/03/11 04:19:57;;;;;;;3.40;2.03;;;;;;;;;;5840684;28;20193;-81
2024/03/11 04:22:49;;;;;;;4.30;3.40;;;;;;;;;;5840193;28;20052;-82
2024/03/11 04:25:41;;;;;;;2.17;2.05;;;;;;;;;;5841538;28;20160;-82
2024/03/11 04:28:32;;;;;;;4.95;3.08;;;;;;;;;;5841446;28;20407;-82
2024/03/11 04:31:24;;;;;;;3.40;3.10;;;;;;;;;;5841419;28;20042;-82
2024/03/11 04:34:14;;;;;;;2.28;2.08;;;;;;;;;;5840019;28;20200;-82
2024/03/11 04:37:06;;;;;;;3.63;2.83;;;;;;;;;;5841182;28;20508;-82
2024/03/11 04:39:56;;;;;;;2.50;2.30;;;;;;;;;;5840032;28;20053;-82
2024/03/11 04:42:48;;;;;;;3.28;2.53;;;;;;;;;;5840958;28;20045;-82
2024/03/11 04:45:39;;;;;;;3.63;3.25;;;;;;;;;;5839724;28;20052;-82
2024/03/11 04:48:30;;;;;;;5.85;3.67;;;;;;;;;;5839415;28;20412;-83
2024/03/11 04:51:21;;;;;;;2.33;1.92;;;;;;;;;;5839668;28;20389;-82
2024/03/11 04:54:12;;;;;;;6.55;3.28;;;;;;;;;;5840942;28;20053;-82
2024/03/11 04:57:03;;;;;;;4.35;3.58;;;;;;;;;;5839681;28;20423;-83
2024/03/11 04:59:53;;;;;;;3.25;2.72;;;;;;;;;;5840006;28;20435;-82
2024/03/11 05:02:45;;;;;;;5.22;2.25;;;;;;;;;;5839348;28;20054;-82
2024/03/11 05:05:36;;;;;;;5.03;1.98;;;;;;;;;;5840756;28;20554;-82
2024/03/11 05:08:28;;;;;;;4.97;2.33;;;;;;;;;;5840629;28;20050;-82
2024/03/11 05:11:18;;;;;;;4.50;3.03;;;;;;;;;;5840736;28;20068;-82
2024/03/11 05:14:09;;;;;;;5.53;2.20;;;;;;;;;;5840850;28;20056;-82
2024/03/11 05:17:00;;;;;;;3.58;2.97;;;;;;;;;;5839549;28;20416;-83
2024/03/11 05:19:51;;;;;;;2.78;2.53;;;;;;;;;;5840623;28;20133;-83
2024/03/11 05:22:43;;;;;;;2.58;2.38;;;;;;;;;;5840186;28;20041;-83
2024/03/11 05:25:34;;;;;;;6.30;3.58;;;;;;;;;;5840459;28;20046;-82
2024/03/11 05:28:26;;;;;;;3.60;2.92;;;;;;;;;;5838868;28;20049;-83
2024/03/11 05:31:17;;;;;;;3.55;3.05;;;;;;;;;;5838795;28;20061;-82
2024/03/11 05:34:07;;;;;;;4.18;3.65;;;;;;;;;;5838593;28;20381;-83
2024/03/11 05:36:58;;;;;;;2.75;2.55;;;;;;;;;;5839249;28;20041;-83
2024/03/11 05:39:49;;;;;;;6.28;2.67;;;;;;;;;;5839972;28;20045;-82
2024/03/11 05:42:41;;;;;;;3.03;2.28;;;;;;;;;;5822329;28;20041;-82
2024/03/11 05:45:32;;;;;;;5.22;4.00;;;;;;;;;;5840052;28;20045;-82
2024/03/11 05:48:24;;;;;;;2.50;2.30;;;;;;;;;;5839703;28;20050;-82
2024/03/11 05:51:15;;;;;;;4.10;2.90;;;;;;;;;;5839967;28;20064;-83
2024/03/11 05:54:06;;;;;;;2.95;2.20;;;;;;;;;;5840088;28;20619;-82
2024/03/11 05:56:57;;;;;;;5.93;3.03;;;;;;;;;;5839077;28;20419;-82
2024/03/11 05:59:52;;;;;;;4.90;2.42;;;;;;;;;;5840058;28;20046;-82
2024/03/11 06:02:46;;;;;;;3.58;2.45;;;;;;;;;;5838234;28;20432;-82
2024/03/11 06:05:38;;;;;;;3.15;2.13;;;;;;;;;;5839941;28;20125;-82
2024/03/11 06:08:29;;;;;;;5.60;3.00;;;;;;;;;;5838498;28;20125;-82
2024/03/11 06:11:20;;;;;;;5.72;2.33;;;;;;;;;;5838297;28;20511;-82
2024/03/11 06:14:14;;;;;;;5.00;2.60;;;;;;;;;;5838417;28;20470;-82
2024/03/11 06:17:07;;;;;;;3.45;2.70;;;;;;;;;;5838500;28;20049;-82
2024/03/11 06:19:58;;;;;;;4.97;3.83;;;;;;;;;;5839118;28;20080;-83
2024/03/11 06:22:49;;;;;;;4.00;3.45;;;;;;;;;;5839398;28;20053;-82
2024/03/11 06:25:40;;;;;;;4.72;2.65;;;;;;;;;;5838187;28;20042;-82
2024/03/11 06:28:33;;;;;;;2.60;2.40;;;;;;;;;;5821820;28;20042;-83
2024/03/11 06:31:24;;;;;;;5.68;3.22;;;;;;;;;;5838110;28;20041;-82
2024/03/11 06:34:15;;;;;;;1.63;1.52;;;;;;;;;;5838103;28;20050;-82
2024/03/11 06:37:05;;;;;;;3.72;2.33;;;;;;;;;;5838068;28;20053;-83
2024/03/11 06:39:56;;;;;;;4.78;3.45;;;;;;;;;;5838295;28;20046;-84
2024/03/11 06:42:48;;;;;;;3.38;3.00;;;;;;;;;;5839765;28;20078;-85
2024/03/11 06:45:41;;;;;;;8.10;2.67;;;;;;;;;;5839564;28;20374;-86
2024/03/11 06:48:32;;;;;;;4.72;3.58;;;;;;;;;;5838631;28;20046;-86
2024/03/11 06:51:24;;;;;;;3.00;2.25;;;;;;;;;;5839815;28;20515;-86
2024/03/11 06:54:14;;;;;;;4.85;2.92;;;;;;;;;;5839070;28;20499;-86
2024/03/11 06:57:05;;;;;;;6.93;1.98;;;;;;;;;;5838477;28;20054;-86
2024/03/11 06:59:57;;;;;;;3.40;2.92;;;;;;;;;;5838810;28;20049;-85
2024/03/11 07:02:49;;;;;;;4.20;1.92;;;;;;;;;;5839520;28;20419;-86
2024/03/11 07:05:40;;;;;;;3.90;2.85;;;;;;;;;;5837921;28;20042;-86
2024/03/11 07:08:34;;;;;;;2.50;2.30;;;;;;;;;;5822477;28;20039;-85
2024/03/11 07:11:24;;;;;;;9.68;3.70;;;;;;;;;;5841801;28;20053;-87
2024/03/11 07:14:15;;;;;;;2.75;2.28;;;;;;;;;;5842140;28;20524;-86
2024/03/11 07:17:07;;;;;;;3.50;2.63;;;;;;;;;;5842397;28;20060;-85
2024/03/11 07:20:18;;;;;;;7.35;2.88;;;;;;;;;;5837903;28;20069;-84
2024/03/11 07:23:10;;;;;;;4.32;3.25;;;;;;;;;;5841702;28;20053;-85
2024/03/11 07:26:01;;;;;;;1.83;1.67;;;;;;;;;;5825657;28;20492;-84
2024/03/11 07:28:52;;;;;;;2.30;2.00;;;;;;;;;;5841803;28;20046;-86
2024/03/11 07:31:43;;;;;;;3.85;2.47;;;;;;;;;;5841550;28;20132;-86
2024/03/11 07:34:34;;;;;;;3.80;2.53;;;;;;;;;;5842665;28;20523;-85
2024/03/11 07:37:29;;;;;;;3.08;2.80;;;;;;;;;;5842772;28;20046;-86
2024/03/11 07:40:19;;;;;;;6.03;3.00;;;;;;;;;;5841254;28;20057;-85
2024/03/11 07:43:11;;;;;;;3.67;2.10;;;;;;;;;;5840960;28;20057;-86
2024/03/11 07:46:03;;;;;;;2.38;2.10;;;;;;;;;;5824961;28;20061;-85
2024/03/11 07:48:54;;;;;;;2.28;2.08;;;;;;;;;;5841434;28;20049;-85
2024/03/11 07:51:45;;;;;;;3.08;2.55;;;;;;;;;;5842865;28;20053;-85
2024/03/11 07:54:36;;;;;;;3.92;2.45;;;;;;;;;;5842428;28;20503;-85
2024/03/11 07:57:26;;;;;;;11.13;2.80;;;;;;;;;;5824691;28;20041;-84
2024/03/11 08:00:18;;;;;;;3.40;3.08;;;;;;;;;;5840686;28;20057;-85
2024/03/11 08:03:09;;;;;;;3.10;2.30;;;;;;;;;;5840835;28;20050;-84
2024/03/11 08:06:00;;;;;;;9.93;3.15;;;;;;;;;;5840879;28;20045;-85
2024/03/11 08:08:52;;;;;;;4.13;2.97;;;;;;;;;;5863929;28;20427;-84
2024/03/11 08:11:44;;;;;;;2.72;2.47;;;;;;;;;;5864977;28;20083;-85
2024/03/11 08:14:35;;;;;;;2.60;2.40;;;;;;;;;;5880103;28;20051;-85
2024/03/11 08:17:25;;;;;;;1.85;1.75;;;;;;;;;;5863791;28;20045;-85
2024/03/11 08:20:20;;;;;;;2.92;2.20;;;;;;;;;;5845931;28;20038;-85
2024/03/11 08:23:11;;;;;;;2.80;2.55;;;;;;;;;;5863582;28;20056;-84
2024/03/11 08:26:02;;;;;;;6.90;2.95;;;;;;;;;;5879693;28;20049;-83
2024/03/11 08:28:53;;;;;;;4.60;2.95;;;;;;;;;;5861713;28;20139;-82
2024/03/11 08:31:47;;;;;;;3.22;2.80;;;;;;;;;;5873036;28;20052;-83
2024/03/11 08:34:38;;;;;;;3.70;2.92;;;;;;;;;;5862914;28;20049;-84
2024/03/11 08:37:29;;;;;;;3.05;2.22;;;;;;;;;;5879279;28;20049;-84
2024/03/11 08:40:21;;;;;;;2.67;2.08;;;;;;;;;;5862822;28;20049;-84
2024/03/11 08:43:14;;;;;;;2.85;2.30;;;;;;;;;;5863082;28;20447;-84
2024/03/11 08:46:04;;;;;;;3.30;2.45;;;;;;;;;;5846341;28;20065;-84
2024/03/11 08:48:55;;;;;;;5.32;3.17;;;;;;;;;;5863315;28;20048;-84
2024/03/11 08:51:46;;;;;;;4.20;3.00;;;;;;;;;;5862756;28;20220;-83
2024/03/11 08:54:39;;;;;;;5.88;3.22;;;;;;;;;;5862385;28;20514;-84
2024/03/11 08:57:34;;;;;;;2.40;2.20;;;;;;;;;;5863765;28;20041;-84
2024/03/11 09:00:27;;;;;;;4.95;3.10;;;;;;;;;;5863800;28;20347;-84
2024/03/11 09:03:18;;;;;;;12.88;7.55;;;;;;;;;;5830250;28;20132;-84
2024/03/11 09:06:10;;;;;;;27.10;19.98;;;;;;;;;;5863798;28;20057;-84
2024/03/11 09:09:04;;;;;;;32.40;13.88;;;;;;;;;;5863453;28;20495;-82
2024/03/11 09:12:00;;;;;;;6.75;4.03;;;;;;;;;;5862598;28;20045;-83
2024/03/11 09:14:55;;;;;;;5.28;3.28;;;;;;;;;;5854431;28;20054;-83
2024/03/11 09:17:50;;;;;;;4.95;3.00;;;;;;;;;;5863503;28;20041;-82
2024/03/11 09:20:45;;;;;;;10.32;6.43;;;;;;;;;;5863364;28;20106;-82
2024/03/11 09:23:36;;;;;;;6.35;3.80;;;;;;;;;;5863457;28;20136;-83
2024/03/11 09:26:29;;;;;;;4.38;3.97;;;;;;;;;;5861659;28;20510;-82
2024/03/11 09:29:21;;;;;;;8.18;5.47;;;;;;;;;;5863316;28;20060;-83
2024/03/11 09:32:12;;;;;;;9.18;6.75;;;;;;;;;;5862774;28;20063;-83
2024/03/11 09:35:05;;;;;;;6.43;5.78;;;;;;;;;;5829240;28;20060;-82
2024/03/11 09:37:56;;;;;;;4.13;3.40;;;;;;;;;;5862373;28;20041;-83
2024/03/11 09:40:48;;;;;;;3.58;2.33;;;;;;;;;;5861718;28;20128;-82
2024/03/11 09:43:41;;;;;;;11.02;5.30;;;;;;;;;;5861686;28;20045;-83
2024/03/11 09:46:34;;;;;;;8.55;5.15;;;;;;;;;;5878070;28;20063;-82
2024/03/11 09:49:25;;;;;;;9.30;6.25;;;;;;;;;;5877976;28;20045;-82
2024/03/11 09:52:20;;;;;;;13.20;6.30;;;;;;;;;;5861769;28;20049;-82
2024/03/11 09:55:14;;;;;;;7.32;4.85;;;;;;;;;;5861579;28;20526;-81
2024/03/11 09:58:10;;;;;;;10.20;6.65;;;;;;;;;;5861462;28;20060;-82
2024/03/11 10:01:07;;;;;;;19.77;10.02;;;;;;;;;;5862100;28;20395;-81
2024/03/11 10:03:58;;;;;;;9.15;6.85;;;;;;;;;;5830058;28;20050;-83
2024/03/11 10:07:09;;;;;;;16.38;7.60;;;;;;;;;;5869588;28;20120;-83
2024/03/11 10:10:12;;;;;;;18.73;8.27;;;;;;;;;;5856211;28;20183;-83
2024/03/11 10:13:05;;;;;;;14.20;8.60;;;;;;;;;;5862634;28;20050;-82
2024/03/11 10:16:21;;;;;;;15.13;8.80;;;;;;;;;;5862023;28;20139;-82
2024/03/11 10:19:12;;;;;;;15.20;7.38;;;;;;;;;;5862777;28;20073;-82
2024/03/11 10:22:03;;;;;;;28.45;13.30;;;;;;;;;;5861426;28;20049;-81
2024/03/11 10:24:58;;;;;;;10.32;4.95;;;;;;;;;;5861361;28;20067;-82
2024/03/11 10:27:49;;;;;;;14.10;4.82;;;;;;;;;;5861088;28;20507;-81
2024/03/11 10:30:40;;;;;;;22.88;9.68;;;;;;;;;;5860925;28;20038;-82
2024/03/11 10:33:32;;;;;;;7.25;5.10;;;;;;;;;;5860761;28;20348;-82
2024/03/11 10:36:24;;;;;;;13.10;7.60;;;;;;;;;;5861173;28;20053;-82
2024/03/11 10:42:28;;;;;;;15.25;7.40;;;;;;;;;;5862854;28;20049;-80
2024/03/11 10:45:48;;;;;;;22.92;9.80;;;;;;;;;;5865807;28;20053;-81
2024/03/11 10:48:42;;;;;;;11.48;6.88;;;;;;;;;;5839552;28;20072;-81
2024/03/11 10:51:34;;;;;;;4.45;3.47;;;;;;;;;;5865652;28;20053;-81
2024/03/11 10:54:28;;;;;;;18.20;10.73;;;;;;;;;;5865506;28;20045;-81
2024/03/11 10:57:30;;;;;;;9.45;6.35;;;;;;;;;;5865767;28;20546;-81
2024/03/11 11:00:22;;;;;;;9.60;5.75;;;;;;;;;;5865839;28;20057;-81
2024/03/11 11:03:13;;;;;;;11.73;7.00;;;;;;;;;;5882057;28;20440;-81
2024/03/11 11:06:14;;;;;;;14.70;4.15;;;;;;;;;;5866704;28;20423;-81
2024/03/11 11:09:11;;;;;;;9.13;5.20;;;;;;;;;;5866715;28;20462;-81
2024/03/11 11:12:03;;;;;;;10.02;4.13;;;;;;;;;;5866770;28;20053;-80
2024/03/11 11:15:07;;;;;;;12.65;8.02;;;;;;;;;;5865650;28;20427;-81
2024/03/11 11:17:59;;;;;;;8.48;4.10;;;;;;;;;;5866305;28;20041;-81
2024/03/11 11:20:52;;;;;;;8.20;5.70;;;;;;;;;;5865106;28;20065;-82
2024/03/11 11:23:43;;;;;;;5.85;4.60;;;;;;;;;;5866043;28;20434;-81
2024/03/11 11:26:41;;;;;;;9.55;6.85;;;;;;;;;;5881322;28;20045;-81
2024/03/11 11:29:33;;;;;;;13.55;9.00;;;;;;;;;;5848537;28;20048;-81
2024/03/11 11:32:30;;;;;;;7.03;4.85;;;;;;;;;;5848240;28;20041;-82
2024/03/11 11:35:36;;;;;;;11.77;6.22;;;;;;;;;;5881115;28;20143;-81
2024/03/11 11:38:29;;;;;;;19.75;11.68;;;;;;;;;;5864412;28;20037;-81
2024/03/11 11:41:41;;;;;;;11.93;7.53;;;;;;;;;;5832504;28;20105;-81
2024/03/11 11:44:32;;;;;;;10.27;7.68;;;;;;;;;;5865016;28;20045;-81
2024/03/11 11:47:25;;;;;;;13.30;7.15;;;;;;;;;;5880797;28;20179;-81
2024/03/11 11:50:30;;;;;;;9.55;6.05;;;;;;;;;;5865552;28;20057;-81
2024/03/11 11:53:32;;;;;;;9.10;5.38;;;;;;;;;;5865412;28;20061;-82
2024/03/11 11:56:25;;;;;;;10.02;5.28;;;;;;;;;;5864699;28;20046;-81
2024/03/11 11:59:20;;;;;;;6.95;3.40;;;;;;;;;;5864150;28;20057;-80
2024/03/11 12:02:23;;;;;;;8.90;5.65;;;;;;;;;;5865483;28;20423;-81
2024/03/11 12:05:15;;;;;;;16.08;5.50;;;;;;;;;;5862922;28;20050;-81
2024/03/11 12:08:18;;;;;;;6.10;4.32;;;;;;;;;;5864194;28;20049;-81
2024/03/11 12:11:24;;;;;;;6.50;4.15;;;;;;;;;;5863906;28;20069;-81
2024/03/11 12:14:16;;;;;;;7.25;4.82;;;;;;;;;;5863901;28;20504;-81
2024/03/11 12:17:07;;;;;;;4.32;3.65;;;;;;;;;;5865116;28;20053;-81
2024/03/11 12:20:35;;;;;;;14.05;4.53;;;;;;;;;;5864038;28;20056;-82
2024/03/11 12:23:25;;;;;;;6.00;4.07;;;;;;;;;;5873679;28;20042;-81
2024/03/11 12:26:16;;;;;;;6.95;3.63;;;;;;;;;;5863622;28;20049;-81
2024/03/11 12:29:15;;;;;;;6.88;4.47;;;;;;;;;;5864873;28;20053;-81
2024/03/11 12:32:11;;;;;;;;;;;;;;;;;;5864009;28;20487;-81
2024/03/11 12:35:05;;;;;;;7.50;4.07;;;;;;;;;;5864798;28;19947;-81
2024/03/11 12:38:01;;;;;;;6.55;4.25;;;;;;;;;;5847705;28;20041;-81
2024/03/11 12:40:53;;;;;;;6.22;3.72;;;;;;;;;;5863419;28;20052;-81
2024/03/11 12:43:43;;;;;;;5.63;3.75;;;;;;;;;;5864441;28;20037;-81
2024/03/11 12:46:34;;;;;;;6.68;4.45;;;;;;;;;;5846656;28;20056;-81
2024/03/11 12:49:27;;;;;;;7.43;3.85;;;;;;;;;;5863291;28;20124;-81
2024/03/11 12:52:20;;;;;;;9.00;3.88;;;;;;;;;;5864295;28;20473;-80
2024/03/11 12:55:13;;;;;;;4.60;4.03;;;;;;;;;;5862900;28;20064;-80
2024/03/11 12:58:14;;;;;;;13.57;5.22;;;;;;;;;;5879220;28;20049;-80
2024/03/11 13:01:15;;;;;;;11.10;4.00;;;;;;;;;;5864148;28;20435;-80
2024/03/11 13:04:19;;;;;;;5.45;3.97;;;;;;;;;;5862688;28;20053;-80
2024/03/11 13:07:11;;;;;;;10.35;5.15;;;;;;;;;;5863335;28;20519;-80
2024/03/11 13:10:03;;;;;;;6.00;4.43;;;;;;;;;;5863721;28;20045;-80
2024/03/11 13:12:55;;;;;;;8.30;4.45;;;;;;;;;;5862834;28;20052;-81
2024/03/11 13:15:50;;;;;;;9.95;5.47;;;;;;;;;;5863790;28;20038;-81
2024/03/11 13:18:43;;;;;;;44.20;17.88;;;;;;;;;;5862332;28;20052;-81
2024/03/11 13:21:34;;;;;;;90.80;54.20;;;;;;;;;;5862240;28;20045;-81
2024/03/11 13:24:28;;;;;;;175.60;99.80;;;;;;;;;;5862290;28;20049;-81
2024/03/11 13:27:24;;;;;;;77.83;36.37;;;;;;;;;;5862658;28;20475;-80
2024/03/11 13:30:15;;;;;;;68.32;32.22;;;;;;;;;;5846123;28;20423;-81
2024/03/11 13:33:06;;;;;;;58.63;25.80;;;;;;;;;;5861911;28;20053;-80
2024/03/11 13:35:57;;;;;;;48.35;23.40;;;;;;;;;;5863891;28;20046;-80
2024/03/11 13:38:51;;;;;;;19.55;13.02;;;;;;;;;;5862084;28;20041;-81
2024/03/11 13:41:47;;;;;;;36.97;20.67;;;;;;;;;;5861935;28;20045;-80
2024/03/11 13:44:42;;;;;;;38.15;16.63;;;;;;;;;;5861894;28;20128;-80
2024/03/11 13:47:33;;;;;;;12.18;7.18;;;;;;;;;;5863051;28;20038;-80
2024/03/11 13:50:26;;;;;;;35.50;19.60;;;;;;;;;;5861470;28;20049;-80
2024/03/11 13:53:17;;;;;;;19.85;12.00;;;;;;;;;;5863063;28;20724;-80
2024/03/11 13:56:10;;;;;;;17.38;12.05;;;;;;;;;;5861756;28;20054;-80
2024/03/11 13:59:05;;;;;;;13.10;7.82;;;;;;;;;;5877656;28;20049;-79
2024/03/11 14:01:55;;;;;;;26.88;16.33;;;;;;;;;;5862944;28;20057;-81
2024/03/11 14:04:46;;;;;;;7.60;5.78;;;;;;;;;;5862697;28;20057;-80
2024/03/11 14:07:37;;;;;;;15.60;10.82;;;;;;;;;;5861218;28;20045;-81
2024/03/11 14:10:28;;;;;;;27.35;13.02;;;;;;;;;;5844609;28;20045;-80
2024/03/11 14:13:20;;;;;;;20.25;10.30;;;;;;;;;;5861171;28;20523;-80
2024/03/11 14:16:13;;;;;;;12.35;7.93;;;;;;;;;;5861735;28;20057;-80
2024/03/11 14:19:06;;;;;;;27.60;16.13;;;;;;;;;;5861756;28;20499;-80
2024/03/11 14:21:57;;;;;;;56.28;26.90;;;;;;;;;;5861685;28;20049;-81
2024/03/11 14:24:48;;;;;;;51.72;23.35;;;;;;;;;;5861002;28;20042;-81
2024/03/11 14:27:45;;;;;;;22.25;10.15;;;;;;;;;;5862513;28;20041;-80
2024/03/11 14:30:37;;;;;;;20.55;11.73;;;;;;;;;;5861193;28;20800;-80
2024/03/11 14:33:30;;;;;;;22.17;8.98;;;;;;;;;;5860944;28;20847;-80
2024/03/11 14:36:21;;;;;;;40.25;20.25;;;;;;;;;;5862049;28;20049;-80
2024/03/11 14:39:18;;;;;;;78.22;36.42;;;;;;;;;;5877613;28;20144;-80
2024/03/11 14:42:11;;;;;;;82.15;42.13;;;;;;;;;;5862142;28;20609;-80
2024/03/11 14:45:07;;;;;;;15.05;8.52;;;;;;;;;;5877141;28;20393;-81
2024/03/11 14:48:01;;;;;;;32.15;14.43;;;;;;;;;;5860620;28;20083;-80
2024/03/11 14:50:54;;;;;;;23.30;13.38;;;;;;;;;;5861144;28;20067;-81
2024/03/11 14:53:45;;;;;;;40.55;19.75;;;;;;;;;;5860939;28;20061;-81
2024/03/11 14:56:36;;;;;;;42.13;19.27;;;;;;;;;;5862191;28;20045;-81
2024/03/11 14:59:27;;;;;;;36.40;18.75;;;;;;;;;;5861726;28;20124;-81
2024/03/11 15:02:18;;;;;;;57.83;25.48;;;;;;;;;;5860793;28;20045;-80
2024/03/11 15:05:18;;;;;;;49.00;19.25;;;;;;;;;;5860618;28;20069;-81
2024/03/11 15:08:09;;;;;;;24.95;15.27;;;;;;;;;;5861934;28;20136;-81
2024/03/11 15:11:04;;;;;;;31.85;9.95;;;;;;;;;;5860799;28;20049;-81
2024/03/11 15:13:55;;;;;;;32.85;13.23;;;;;;;;;;5854689;28;20053;-80
2024/03/11 15:16:47;;;;;;;43.65;21.85;;;;;;;;;;5861895;28;20049;-80
2024/03/11 15:19:40;;;;;;;58.72;22.85;;;;;;;;;;5827745;28;20045;-81
2024/03/11 15:22:31;;;;;;;33.13;13.70;;;;;;;;;;5860757;28;20048;-80
2024/03/11 15:25:28;;;;;;;29.33;13.90;;;;;;;;;;5860766;28;20094;-81
2024/03/11 15:28:22;;;;;;;58.30;23.98;;;;;;;;;;5861404;28;20041;-80
2024/03/11 15:31:13;;;;;;;44.25;16.38;;;;;;;;;;5848842;28;20133;-80
2024/03/11 15:34:07;;;;;;;37.05;15.48;;;;;;;;;;5865869;28;20053;-80
2024/03/11 15:36:58;;;;;;;39.20;19.23;;;;;;;;;;5865604;28;20072;-80
2024/03/11 15:39:49;;;;;;;34.63;17.13;;;;;;;;;;5864289;28;20041;-80
2024/03/11 15:42:40;;;;;;;22.15;14.43;;;;;;;;;;5864613;28;20041;-80
2024/03/11 15:45:34;;;;;;;26.80;15.32;;;;;;;;;;5864217;28;20099;-81
2024/03/11 15:48:27;;;;;;;19.50;11.93;;;;;;;;;;5864021;28;20146;-80
2024/03/11 15:51:20;;;;;;;13.60;8.65;;;;;;;;;;5863694;28;20521;-80
2024/03/11 15:54:11;;;;;;;21.27;13.60;;;;;;;;;;5863726;28;20419;-80
2024/03/11 15:57:02;;;;;;;16.15;10.55;;;;;;;;;;5831467;28;20499;-79
2024/03/11 15:59:53;;;;;;;20.77;11.48;;;;;;;;;;5864368;28;20055;-80
2024/03/11 16:02:46;;;;;;;22.10;9.05;;;;;;;;;;5880279;28;20038;-80
2024/03/11 16:05:37;;;;;;;16.75;9.25;;;;;;;;;;5865235;28;20049;-80
2024/03/11 16:08:30;;;;;;;14.73;8.98;;;;;;;;;;5863391;28;20044;-80
2024/03/11 16:11:21;;;;;;;10.10;8.38;;;;;;;;;;5863474;28;20063;-80
2024/03/11 16:14:13;;;;;;;15.65;6.55;;;;;;;;;;5864817;28;20588;-81
2024/03/11 16:17:05;;;;;;;11.55;6.97;;;;;;;;;;5865066;28;20393;-79
2024/03/11 16:19:57;;;;;;;13.30;8.20;;;;;;;;;;5863998;28;20053;-80
2024/03/11 16:22:49;;;;;;;9.30;7.13;;;;;;;;;;5864854;28;20676;-80
2024/03/11 16:25:40;;;;;;;12.73;8.57;;;;;;;;;;5863588;28;20068;-80
2024/03/11 16:28:32;;;;;;;12.13;8.55;;;;;;;;;;5879973;28;20045;-80
2024/03/11 16:31:25;;;;;;;11.32;5.97;;;;;;;;;;5863354;28;20380;-80
2024/03/11 16:34:18;;;;;;;10.23;7.13;;;;;;;;;;5864648;28;20049;-80
2024/03/11 16:37:10;;;;;;;9.65;6.68;;;;;;;;;;5863129;28;20470;-80
2024/03/11 16:40:00;;;;;;;12.63;7.63;;;;;;;;;;5862769;28;20050;-79
2024/03/11 16:43:15;;;;;;;5.43;4.88;;;;;;;;;;5862650;28;20511;-80
2024/03/11 16:46:07;;;;;;;9.30;6.15;;;;;;;;;;5863949;28;20057;-79
2024/03/11 16:48:59;;;;;;;12.70;9.65;;;;;;;;;;5863147;28;20052;-80
2024/03/11 16:51:50;;;;;;;14.15;9.60;;;;;;;;;;5823687;28;20096;-81
2024/03/11 16:54:44;;;;;;;124.65;57.33;;;;;;;;;;5844192;28;20124;-82
2024/03/11 16:57:36;;;;;;;34.17;20.20;;;;;;;;;;5864067;28;20049;-81
2024/03/11 17:00:33;;;;;;;61.25;30.75;;;;;;;;;;5862462;28;20099;-81
2024/03/11 17:03:24;;;;;;;56.47;36.58;;;;;;;;;;5862326;28;20506;-81
2024/03/11 17:06:15;;;;;;;18.95;12.48;;;;;;;;;;5862544;28;20369;-80
2024/03/11 17:09:06;;;;;;;11.05;7.47;;;;;;;;;;5863379;28;20054;-80
2024/03/11 17:11:57;;;;;;;14.70;9.88;;;;;;;;;;5864126;28;20045;-81